Flight Track Log - Related Links

Times and Time Zones

All times are in EDT time to prevent confusion due to time zone crossing. See the EMD21 flight status page for this flight to view local times or setup timezone preferences in your user account.

Time Position Orientation Groundspeed Altitude Reporting Facility
EDT Latitude Longitude Course Direction KTS MPH feet Rate Location/Type
Sat 04:06:40 PM 34.8775 -95.7050 67° East 219 252 4,700  Level Fort Worth Center
Sat 04:07:40 PM 34.8956 -95.6592 64° Northeast 179 206 5,900 1,150 Climbing Fort Worth Center
Sat 04:08:40 PM 34.9136 -95.6108 65° Northeast 162 186 7,000 550 Climbing Fort Worth Center
Sat 04:09:40 PM 34.9314 -95.5522 70° East 162 186 7,000  Level Fort Worth Center
Sat 04:10:00 PM 34.9725 -95.4685 67° East  Level FlightAware Approximate
Sat 04:10:40 PM 34.9556 -95.4806 68° East 191 220 7,000  Level Fort Worth Center
Sat 04:11:00 PM 34.9906 -95.4161 67° East  Level FlightAware Approximate
Sat 04:11:40 PM 34.9836 -95.4117 64° Northeast 215 247 7,000  Level Fort Worth Center
Sat 04:13:00 PM 35.0141 -95.3284 66° East  Level FlightAware Approximate
Sat 04:20:00 PM 35.1667 -94.8870 70° East  Level FlightAware Approximate
Sat 04:21:00 PM 35.1856 -94.8225 70° East  Level FlightAware Approximate
Sat 04:22:00 PM 35.2046 -94.7580 70° East  Level FlightAware Approximate
Sat 04:23:00 PM 35.2243 -94.6938 68° East  Level FlightAware Approximate
Sat 04:24:00 PM 35.2455 -94.6303 68° East  Level FlightAware Approximate
Sat 04:25:00 PM 35.2667 -94.5668 68° East  Level FlightAware Approximate
Sat 04:26:00 PM 35.2862 -94.5026 76° East  Level FlightAware Approximate
Sat 04:27:00 PM 35.2995 -94.4359 76° East  Level FlightAware Approximate
Sat 04:28:00 PM 35.3282 -94.3770 58° Northeast  Level FlightAware Approximate
Sat 04:29:00 PM 35.3333 -94.3667 58° Northeast  Level FlightAware Approximate
Sat 04:30:00 PM 35.3366 -94.3674 58° Northeast  Level Estimated
Sat 04:31:00 PM 35.3333 -94.3667 58° Northeast  Level FlightAware Approximate
Sat 04:32:00 PM 35.3366 -94.3674 58° Northeast  Level Estimated

Login

Don't have an account? Register now (free) for customized features, flight alerts, and more!